Time;durP1;ratioP1;P1;durP2;ratioP2;P2;SDS_P1;SDS_P2;PMS_P1;PMS_P2;Temp;Humidity;BMP_temperature;BMP_pressure;BME280_temperature;BME280_humidity;BME280_pressure;Samples;Min_cycle;Max_cycle;Signal;HPM_P1;HPM_P2
2022/05/07 00:00:39;;;;;;;12.83;5.20;;;;;;;13.22;59.23;101954.44;2105289;28;20230;-62
2022/05/07 00:01:39;;;;;;;12.77;4.23;;;;;;;13.17;58.90;101954.13;2105637;28;20171;-62
2022/05/07 00:02:40;;;;;;;8.83;4.40;;;;;;;13.13;58.62;101954.19;2106032;28;20636;-62
2022/05/07 00:03:40;;;;;;;7.67;4.40;;;;;;;12.98;58.70;101963.13;2106131;28;20183;-63
2022/05/07 00:04:42;;;;;;;7.23;4.60;;;;;;;12.94;58.94;101963.13;2105720;28;20263;-62
2022/05/07 00:05:43;;;;;;;8.33;4.50;;;;;;;12.82;59.27;101949.75;2105904;28;20207;-62
2022/05/07 00:06:43;;;;;;;7.70;5.13;;;;;;;12.85;59.46;101948.94;2106017;28;20416;-63
2022/05/07 00:07:44;;;;;;;10.90;4.80;;;;;;;12.68;59.63;101947.16;2106152;28;20261;-63
2022/05/07 00:08:44;;;;;;;9.07;4.80;;;;;;;12.00;59.97;101817.66;2106368;28;20257;-62
2022/05/07 00:09:45;;;;;;;10.00;4.87;;;;;;;12.86;60.07;101944.16;2106319;28;20181;-62
2022/05/07 00:10:45;;;;;;;10.20;4.70;;;;;;;12.85;60.13;101948.94;2105260;28;20184;-62
2022/05/07 00:11:49;;;;;;;7.13;4.37;;;;;;;12.20;59.82;101838.06;2105363;28;20217;-62
2022/05/07 00:12:49;;;;;;;8.83;4.60;;;;;;;12.64;60.04;101896.34;2105225;28;20205;-62
2022/05/07 00:13:51;;;;;;;7.53;4.30;;;;;;;12.75;59.94;101935.94;2106131;28;20424;-62
2022/05/07 00:14:51;;;;;;;8.73;5.20;;;;;;;12.93;60.12;101944.88;2105410;28;20231;-62
2022/05/07 00:18:30;;;;;;;7.07;4.70;;;;;;;12.31;60.78;101869.34;2106004;28;20389;-62
2022/05/07 00:19:32;;;;;;;8.23;4.70;;;;;;;12.83;60.91;101943.00;2106274;28;20412;-62
2022/05/07 00:20:34;;;;;;;7.80;4.77;;;;;;;12.07;60.58;101822.34;2105045;28;20251;-62
2022/05/07 00:21:34;;;;;;;7.80;4.97;;;;;;;12.25;60.67;101884.09;2105798;28;20416;-62
2022/05/07 00:22:35;;;;;;;7.67;4.27;;;;;;;12.81;60.40;101941.84;2105545;28;20436;-63
2022/05/07 00:23:37;;;;;;;12.70;4.90;;;;;;;12.79;60.72;101941.44;2106134;28;20167;-62
2022/05/07 00:24:38;;;;;;;14.47;5.90;;;;;;;12.54;60.53;101911.16;2105324;28;20239;-62
2022/05/07 00:25:38;;;;;;;12.73;5.33;;;;;;;12.80;60.25;101941.03;2105883;28;20976;-62
2022/05/07 00:26:39;;;;;;;11.20;5.63;;;;;;;12.77;60.21;101943.88;2105680;28;20182;-62
2022/05/07 00:27:39;;;;;;;12.97;4.93;;;;;;;12.74;60.21;101948.28;2106092;28;20265;-62
2022/05/07 00:28:40;;;;;;;10.33;5.57;;;;;;;11.94;60.42;101824.84;2106071;28;20586;-62
2022/05/07 00:29:41;;;;;;;11.23;5.00;;;;;;;12.76;60.27;101940.28;2106068;28;20223;-61
2022/05/07 00:30:41;;;;;;;7.80;5.07;;;;;;;12.71;60.27;101932.41;2105146;28;20175;-62
2022/05/07 00:31:42;;;;;;;9.13;4.80;;;;;;;12.53;60.63;101903.22;2105815;28;20202;-62
2022/05/07 00:32:42;;;;;;;9.43;4.90;;;;;;;12.71;60.53;101931.63;2105008;28;20564;-62
2022/05/07 00:33:43;;;;;;;12.37;5.17;;;;;;;12.75;60.75;101932.38;2105467;28;20190;-63
2022/05/07 00:34:43;;;;;;;10.63;4.90;;;;;;;12.57;60.71;101910.34;2105591;28;20180;-62
2022/05/07 00:35:44;;;;;;;8.90;4.97;;;;;;;12.67;60.53;101922.53;2105752;28;20671;-62
2022/05/07 00:36:44;;;;;;;9.47;5.07;;;;;;;12.75;60.77;101938.72;2106082;28;20206;-62
2022/05/07 00:37:46;;;;;;;6.83;4.63;;;;;;;12.75;60.53;101935.94;2105211;28;20186;-62
2022/05/07 00:38:46;;;;;;;7.97;4.70;;;;;;;12.76;60.51;101937.50;2105776;28;20622;-65
2022/05/07 00:39:48;;;;;;;6.53;4.30;;;;;;;12.68;60.26;101930.47;2105974;28;20410;-64
2022/05/07 00:40:48;;;;;;;6.70;4.13;;;;;;;12.73;59.66;101943.91;2105279;28;20240;-64
2022/05/07 00:41:49;;;;;;;8.57;4.27;;;;;;;12.69;59.39;101936.81;2105675;28;20502;-64
2022/05/07 00:42:50;;;;;;;6.00;4.23;;;;;;;12.65;59.39;101941.63;2105425;28;20265;-64
2022/05/07 00:43:50;;;;;;;7.67;4.20;;;;;;;12.63;59.22;101933.69;2105947;28;20174;-64
2022/05/07 00:44:51;;;;;;;8.77;4.50;;;;;;;12.61;59.03;101935.31;2105388;28;20264;-64
2022/05/07 00:45:53;;;;;;;9.07;4.90;;;;;;;12.12;59.17;101867.16;2105756;28;20175;-64
2022/05/07 00:47:03;;;;;;;8.27;4.20;;;;;;;12.41;59.11;101921.22;2105983;28;20673;-64
2022/05/07 00:48:04;;;;;;;7.53;4.30;;;;;;;11.97;59.06;101856.56;2105826;28;20935;-64
2022/05/07 00:49:05;;;;;;;7.97;5.30;;;;;;;12.13;59.70;101895.72;2105860;28;20438;-64
2022/05/07 00:51:34;;;;;;;7.17;4.70;;;;;;;11.83;59.88;101856.75;2106060;28;20170;-64
2022/05/07 00:52:35;;;;;;;8.90;5.10;;;;;;;12.34;60.32;101937.22;2105621;28;20886;-64
2022/05/07 00:53:37;;;;;;;9.23;5.17;;;;;;;12.33;60.42;101936.41;2106085;28;20857;-64
2022/05/07 00:54:38;;;;;;;6.17;4.87;;;;;;;12.30;60.61;101934.44;2105233;28;20235;-64
2022/05/07 00:55:38;;;;;;;10.70;5.17;;;;;;;12.22;60.68;101927.41;2105722;28;20416;-64
2022/05/07 00:56:39;;;;;;;8.00;5.40;;;;;;;12.22;60.92;101946.06;2105651;28;20607;-64
2022/05/07 00:57:40;;;;;;;10.60;5.20;;;;;;;12.16;61.30;101933.81;2104997;28;20179;-64
2022/05/07 00:58:41;;;;;;;7.87;5.80;;;;;;;12.13;61.25;101940.16;2105271;28;20409;-64
2022/05/07 00:59:42;;;;;;;10.07;5.70;;;;;;;12.09;61.35;101937.44;2105894;28;20562;-63
2022/05/07 01:00:45;;;;;;;8.53;5.53;;;;;;;12.06;61.47;101934.69;2104798;28;20262;-64
2022/05/07 01:01:46;;;;;;;10.27;5.60;;;;;;;12.03;61.77;101930.75;2105914;28;20426;-64
2022/05/07 01:02:47;;;;;;;9.07;5.53;;;;;;;12.01;61.89;101944.28;2105583;28;20415;-64
2022/05/07 01:03:49;;;;;;;8.93;5.30;;;;;;;12.00;61.74;101942.66;2105657;28;20181;-64
2022/05/07 01:04:50;;;;;;;9.40;5.20;;;;;;;11.97;61.82;101942.69;2105074;28;20863;-64
2022/05/07 01:05:50;;;;;;;7.83;5.37;;;;;;;11.55;61.65;101882.72;2105506;28;20412;-64
2022/05/07 01:06:52;;;;;;;11.73;5.67;;;;;;;11.94;61.72;101944.31;2105747;28;20420;-64
2022/05/07 01:07:53;;;;;;;10.67;5.73;;;;;;;11.64;61.64;101899.72;2105565;28;20184;-64
2022/05/07 01:08:54;;;;;;;9.43;4.93;;;;;;;11.92;61.66;101940.38;2105632;28;20413;-64
2022/05/07 01:09:55;;;;;;;6.93;4.90;;;;;;;11.78;61.63;101923.84;2105806;28;20536;-63
2022/05/07 01:10:57;;;;;;;11.73;5.23;;;;;;;11.88;61.63;101945.94;2104889;28;20667;-64
2022/05/07 01:11:57;;;;;;;7.93;4.77;;;;;;;11.88;61.48;101942.41;2105350;28;20417;-64
2022/05/07 01:12:58;;;;;;;10.40;5.37;;;;;;;11.88;61.40;101953.50;2105685;28;20449;-64
2022/05/07 01:13:58;;;;;;;8.70;4.90;;;;;;;11.86;61.13;101942.81;2105543;28;20701;-64
2022/05/07 01:15:01;;;;;;;9.87;4.50;;;;;;;11.85;61.33;101935.69;2104942;28;20710;-64
2022/05/07 01:16:02;;;;;;;9.70;4.80;;;;;;;11.76;61.27;101935.34;2105735;28;20665;-64
2022/05/07 01:17:06;;;;;;;10.57;4.90;;;;;;;11.80;61.02;101940.88;2105794;28;21128;-64
2022/05/07 01:18:07;;;;;;;8.47;4.80;;;;;;;11.46;61.20;101903.81;2105213;28;20947;-64
2022/05/07 01:19:08;;;;;;;7.77;4.40;;;;;;;11.69;61.29;101940.94;2105815;28;20421;-64
2022/05/07 01:20:11;;;;;;;9.37;4.50;;;;;;;11.66;61.44;101941.78;2105435;28;20481;-64
2022/05/07 01:21:13;;;;;;;7.53;4.60;;;;;;;11.49;61.47;101939.88;2104916;28;20173;-64
2022/05/07 01:22:14;;;;;;;7.13;4.80;;;;;;;11.58;61.59;101948.53;2104320;28;20960;-64
2022/05/07 01:23:15;;;;;;;7.83;4.90;;;;;;;11.57;61.68;101946.16;2105688;28;20828;-64
2022/05/07 01:24:16;;;;;;;8.33;4.63;;;;;;;11.36;61.60;101918.53;2105464;28;20608;-64
2022/05/07 01:25:16;;;;;;;8.07;4.73;;;;;;;11.55;61.66;101937.47;2104927;28;20460;-64
2022/05/07 01:26:20;;;;;;;6.60;4.60;;;;;;;11.53;61.38;101940.63;2105492;28;20207;-64
2022/05/07 01:27:20;;;;;;;8.53;4.60;;;;;;;11.37;61.27;101917.38;2105802;28;20176;-64
2022/05/07 01:28:21;;;;;;;9.20;4.80;;;;;;;11.51;61.22;101940.25;2105290;28;20479;-64
2022/05/07 01:29:21;;;;;;;8.87;4.87;;;;;;;11.50;61.34;101946.22;2105687;28;20226;-64
2022/05/07 01:30:23;;;;;;;10.53;4.50;;;;;;;10.60;61.02;101799.34;2104729;28;20182;-64
2022/05/07 01:31:28;;;;;;;9.38;4.55;;;;;;;10.85;61.08;101855.44;2105688;28;20171;-64
2022/05/07 01:32:29;;;;;;;9.95;4.80;;;;;;;11.36;61.37;101927.66;2105191;28;20697;-64
2022/05/07 01:33:33;;;;;;;8.50;4.47;;;;;;;11.40;61.45;101941.53;2105681;28;20610;-64
2022/05/07 01:34:34;;;;;;;11.27;4.60;;;;;;;11.38;61.51;101941.91;2105165;28;20165;-64
2022/05/07 01:35:34;;;;;;;3.67;3.23;;;;;;;11.34;61.22;101941.19;2105394;28;20173;-64
2022/05/07 01:36:35;;;;;;;7.80;4.40;;;;;;;11.31;61.73;101943.94;2105398;28;20290;-64
2022/05/07 01:37:35;;;;;;;6.83;3.97;;;;;;;11.29;61.68;101946.34;2105621;28;20254;-63
2022/05/07 01:38:36;;;;;;;6.57;4.67;;;;;;;11.28;61.70;101944.78;2105000;28;20247;-64
2022/05/07 01:39:36;;;;;;;6.17;4.10;;;;;;;10.38;61.53;101803.41;2105735;28;20219;-64
2022/05/07 01:40:37;;;;;;;6.33;4.40;;;;;;;10.92;61.55;101894.22;2104665;28;20292;-63
2022/05/07 01:41:37;;;;;;;6.40;4.90;;;;;;;11.24;61.58;101949.56;2104675;28;20184;-63
2022/05/07 01:42:39;;;;;;;8.30;4.50;;;;;;;11.21;62.15;101953.94;2104515;28;20175;-64
2022/05/07 01:43:40;;;;;;;7.40;4.30;;;;;;;11.20;62.13;101952.34;2105504;28;20233;-64
2022/05/07 01:44:40;;;;;;;8.03;4.50;;;;;;;11.16;62.20;101950.78;2105076;28;20442;-64
2022/05/07 01:45:41;;;;;;;7.43;4.73;;;;;;;11.13;62.11;101952.38;2105303;28;20335;-64
2022/05/07 01:48:09;;;;;;;8.50;4.73;;;;;;;11.09;62.53;101957.16;2105354;28;20790;-64
2022/05/07 01:49:10;;;;;;;8.48;4.95;;;;;;;11.07;62.79;101956.75;2105593;28;20395;-64
2022/05/07 01:50:11;;;;;;;10.27;5.30;;;;;;;9.80;62.79;101755.31;2104986;28;20204;-63
2022/05/07 01:51:11;;;;;;;10.83;5.37;;;;;;;11.08;62.80;101946.47;2105297;28;20612;-64
2022/05/07 01:52:12;;;;;;;11.80;5.30;;;;;;;11.08;62.63;101950.03;2105124;28;20172;-64
2022/05/07 01:53:14;;;;;;;8.23;4.47;;;;;;;10.01;62.62;101789.28;2105505;28;20667;-64
2022/05/07 01:54:14;;;;;;;9.75;5.00;;;;;;;11.08;62.57;101950.03;2105301;28;20220;-64
2022/05/07 01:55:15;;;;;;;7.77;4.70;;;;;;;11.11;62.36;101951.19;2104863;28;20155;-64
2022/05/07 01:56:15;;;;;;;7.57;4.27;;;;;;;11.07;62.66;101948.44;2105363;28;20634;-64
2022/05/07 01:57:16;;;;;;;11.70;5.30;;;;;;;11.00;62.54;101933.81;2105593;28;20207;-64
2022/05/07 01:58:16;;;;;;;11.83;5.03;;;;;;;11.08;62.50;101943.69;2105230;28;20164;-64
2022/05/07 01:59:17;;;;;;;8.60;4.23;;;;;;;11.06;62.37;101946.09;2105749;28;20177;-64
2022/05/07 02:00:17;;;;;;;8.53;5.00;;;;;;;10.63;62.58;101881.72;2104340;28;20203;-64
2022/05/07 02:01:20;;;;;;;10.37;5.03;;;;;;;11.01;62.83;101947.28;2105586;28;20176;-64
2022/05/07 02:02:21;;;;;;;10.82;5.05;;;;;;;11.04;62.62;101940.13;2105050;28;20294;-64
2022/05/07 02:03:21;;;;;;;8.20;4.97;;;;;;;11.03;62.62;101944.91;2105429;28;20177;-64
2022/05/07 02:04:22;;;;;;;10.60;5.13;;;;;;;11.01;62.50;101947.28;2105221;28;20268;-63
2022/05/07 02:05:23;;;;;;;9.27;4.77;;;;;;;11.00;62.52;101940.16;2104774;28;20210;-63
2022/05/07 02:06:23;;;;;;;9.07;4.90;;;;;;;10.99;62.44;101941.38;2105451;28;20614;-64
2022/05/07 02:07:24;;;;;;;12.13;5.43;;;;;;;10.44;62.53;101854.44;2105566;28;20174;-64
2022/05/07 02:08:24;;;;;;;12.13;5.40;;;;;;;10.96;62.86;101941.38;2105368;28;20547;-64
2022/05/07 02:09:25;;;;;;;8.37;5.33;;;;;;;10.95;62.68;101954.44;2105521;28;20205;-64
2022/05/07 02:10:26;;;;;;;9.13;5.20;;;;;;;10.95;62.59;101945.31;2103817;28;20175;-64
2022/05/07 02:11:26;;;;;;;10.50;5.23;;;;;;;10.93;62.84;101939.41;2104911;28;20175;-64
2022/05/07 02:12:27;;;;;;;7.30;4.40;;;;;;;10.52;62.91;101883.72;2105232;28;20176;-63
2022/05/07 02:13:28;;;;;;;7.67;4.47;;;;;;;10.84;62.60;101944.59;2105372;28;20179;-63
2022/05/07 02:14:29;;;;;;;6.90;4.50;;;;;;;10.92;62.63;101940.59;2105414;28;20239;-64
2022/05/07 02:15:30;;;;;;;6.03;4.40;;;;;;;10.89;62.86;101936.66;2104809;28;20424;-63
2022/05/07 02:16:31;;;;;;;7.70;4.97;;;;;;;10.91;62.78;101936.25;2105304;28;20419;-64
2022/05/07 02:17:31;;;;;;;7.23;4.30;;;;;;;10.83;62.56;101929.16;2105586;28;20178;-64
2022/05/07 02:18:32;;;;;;;6.03;4.10;;;;;;;10.88;62.71;101946.16;2104346;28;20448;-64
2022/05/07 02:19:33;;;;;;;8.17;4.77;;;;;;;10.05;62.74;101811.44;2104956;28;20255;-63
2022/05/07 02:20:33;;;;;;;6.57;4.30;;;;;;;10.87;62.73;101938.25;2104663;28;20722;-64
2022/05/07 02:21:34;;;;;;;7.97;4.40;;;;;;;10.83;62.29;101938.25;2105311;28;20170;-64
2022/05/07 02:22:35;;;;;;;6.93;4.80;;;;;;;10.82;62.74;101941.44;2104911;28;20179;-64
2022/05/07 02:23:36;;;;;;;6.10;4.60;;;;;;;10.79;62.78;101936.69;2105366;28;20162;-64
2022/05/07 02:24:36;;;;;;;8.83;4.40;;;;;;;10.75;62.62;101941.44;2104879;28;20936;-64
2022/05/07 02:25:37;;;;;;;7.37;4.30;;;;;;;10.67;62.46;101939.91;2105302;28;20259;-64
2022/05/07 02:26:37;;;;;;;6.43;4.33;;;;;;;10.56;61.88;101937.16;2105461;28;20195;-64
2022/05/07 02:27:38;;;;;;;9.50;4.70;;;;;;;10.54;61.52;101939.53;2105498;28;20704;-64
2022/05/07 02:28:39;;;;;;;6.53;4.47;;;;;;;10.53;61.98;101935.19;2105286;28;20178;-64
2022/05/07 02:29:39;;;;;;;10.17;4.70;;;;;;;10.53;62.06;101931.63;2105331;28;20181;-64
2022/05/07 02:30:40;;;;;;;13.07;5.33;;;;;;;9.83;62.47;101826.47;2103798;28;20178;-64
2022/05/07 02:31:41;;;;;;;10.53;5.10;;;;;;;9.69;62.69;101798.84;2104756;28;20183;-63
2022/05/07 02:33:02;;;;;;;6.95;4.70;;;;;;;10.55;62.28;101935.56;2105253;28;20499;-65
2022/05/07 02:34:02;;;;;;;9.30;4.50;;;;;;;10.58;62.73;101942.31;2105156;28;20185;-65
2022/05/07 02:35:03;;;;;;;7.60;4.50;;;;;;;10.57;62.79;101932.41;2104748;28;20554;-65
2022/05/07 02:36:04;;;;;;;9.83;4.50;;;;;;;10.56;63.02;101934.38;2105294;28;20277;-65
2022/05/07 02:37:05;;;;;;;6.07;4.50;;;;;;;10.56;63.01;101937.16;2104760;28;20176;-65
2022/05/07 02:38:06;;;;;;;6.63;4.40;;;;;;;10.56;62.95;101936.38;2104678;28;20210;-65
2022/05/07 02:39:06;;;;;;;10.33;4.30;;;;;;;10.53;63.29;101934.41;2105427;28;20413;-65
2022/05/07 02:40:08;;;;;;;7.57;4.60;;;;;;;10.53;63.30;101932.44;2105367;28;20265;-64
2022/05/07 02:42:33;;;;;;;9.40;4.70;;;;;;;10.50;63.82;101940.75;2105199;28;20163;-64
2022/05/07 02:43:34;;;;;;;7.28;4.63;;;;;;;10.49;63.64;101939.16;2105129;28;20389;-64
2022/05/07 02:44:34;;;;;;;7.53;4.63;;;;;;;10.44;63.91;101951.44;2104954;28;20171;-64
2022/05/07 02:45:35;;;;;;;13.40;4.77;;;;;;;9.87;63.87;101860.50;2105037;28;20264;-64
2022/05/07 02:46:36;;;;;;;10.07;5.03;;;;;;;10.27;63.70;101948.72;2105359;28;20261;-64
2022/05/07 02:47:38;;;;;;;7.50;4.20;;;;;;;9.73;63.32;101866.84;2105523;28;20202;-65
2022/05/07 02:48:39;;;;;;;8.10;4.23;;;;;;;10.16;63.10;101934.88;2105253;28;20170;-64
2022/05/07 02:49:40;;;;;;;6.23;4.10;;;;;;;9.69;62.85;101868.81;2105030;28;20411;-64
2022/05/07 02:50:40;;;;;;;8.93;4.13;;;;;;;10.06;62.68;101945.97;2105527;28;20174;-64
2022/05/07 02:51:41;;;;;;;8.57;4.17;;;;;;;10.02;62.55;101953.44;2106864;28;20175;-65
2022/05/07 02:52:41;;;;;;;5.93;4.37;;;;;;;9.97;62.86;101940.81;2106663;28;20181;-64
2022/05/07 02:53:42;;;;;;;7.27;4.40;;;;;;;9.99;63.12;101949.50;2106764;28;20257;-65
2022/05/07 02:54:43;;;;;;;7.03;4.17;;;;;;;9.54;63.12;101883.06;2106333;28;20178;-65
2022/05/07 02:55:43;;;;;;;10.13;4.53;;;;;;;9.91;63.48;101941.59;2106750;28;20177;-65
2022/05/07 02:56:43;;;;;;;6.67;4.70;;;;;;;9.50;63.44;101891.38;2106935;28;20551;-64
2022/05/07 02:57:45;;;;;;;8.90;4.80;;;;;;;9.86;64.32;101953.06;2106936;28;20235;-64
2022/05/07 02:58:45;;;;;;;6.13;4.50;;;;;;;9.86;64.12;101948.31;2106925;28;20242;-64
2022/05/07 02:59:47;;;;;;;6.80;4.23;;;;;;;9.79;64.47;101953.84;2106609;28;20444;-64
2022/05/07 03:00:49;;;;;;;8.63;4.45;;;;;;;9.79;64.64;101945.53;2105859;28;20216;-64
2022/05/07 03:01:51;;;;;;;7.80;4.78;;;;;;;9.74;64.49;101940.41;2106828;28;20177;-64
2022/05/07 03:02:51;;;;;;;7.90;4.28;;;;;;;9.69;64.74;101951.84;2106565;28;20171;-64
2022/05/07 03:03:52;;;;;;;6.37;4.47;;;;;;;9.65;64.92;101948.31;2106407;28;20237;-65
2022/05/07 03:04:53;;;;;;;6.57;4.60;;;;;;;9.76;64.76;101948.31;2106177;28;20181;-64
2022/05/07 03:05:55;;;;;;;7.97;4.90;;;;;;;9.28;64.70;101872.38;2106499;28;20211;-66
2022/05/07 03:06:56;;;;;;;9.93;4.57;;;;;;;9.74;64.43;101954.22;2106780;28;20428;-64
2022/05/07 03:07:59;;;;;;;9.33;4.80;;;;;;;9.76;64.73;101951.06;2106694;28;20199;-65
2022/05/07 03:08:59;;;;;;;9.30;4.53;;;;;;;9.48;64.72;101909.56;2105831;28;20322;-64
2022/05/07 03:10:00;;;;;;;8.23;4.40;;;;;;;9.77;64.70;101961.75;2105952;28;20412;-64
2022/05/07 03:11:00;;;;;;;5.53;4.70;;;;;;;9.28;64.79;101891.75;2105860;28;20646;-64
2022/05/07 03:12:01;;;;;;;7.80;4.27;;;;;;;9.76;64.81;101953.84;2106370;28;20171;-64
2022/05/07 03:13:01;;;;;;;7.13;4.87;;;;;;;9.75;64.63;101968.88;2106741;28;20632;-64
2022/05/07 03:14:03;;;;;;;8.40;4.70;;;;;;;9.65;64.81;101966.91;2105763;28;20646;-64
2022/05/07 03:15:05;;;;;;;7.03;4.17;;;;;;;9.72;64.92;101958.59;2105259;28;20172;-64
2022/05/07 03:16:06;;;;;;;9.40;4.57;;;;;;;9.77;64.96;101967.31;2105751;28;20499;-64
2022/05/07 03:17:07;;;;;;;8.75;4.57;;;;;;;9.82;64.58;101961.38;2106281;28;20413;-64
2022/05/07 03:18:07;;;;;;;8.37;4.50;;;;;;;9.81;64.73;101967.31;2106421;28;20188;-64
2022/05/07 03:19:08;;;;;;;8.23;4.57;;;;;;;9.77;64.50;101961.75;2106820;28;20183;-64
2022/05/07 03:20:12;;;;;;;14.10;5.37;;;;;;;9.74;64.56;101965.31;2105949;28;20259;-64
2022/05/07 03:21:12;;;;;;;11.27;4.78;;;;;;;9.73;64.66;101963.72;2106457;28;20160;-64
2022/05/07 03:22:13;;;;;;;9.20;4.77;;;;;;;9.15;64.50;101894.09;2106123;28;20176;-64
2022/05/07 03:23:13;;;;;;;6.53;4.43;;;;;;;9.62;64.47;101962.94;2106572;28;20236;-64
2022/05/07 03:24:14;;;;;;;6.13;4.60;;;;;;;9.65;64.60;101967.69;2106241;28;20204;-64
2022/05/07 03:25:14;;;;;;;8.33;4.70;;;;;;;8.53;64.41;101787.72;2105830;28;20214;-64
2022/05/07 03:26:17;;;;;;;7.00;5.00;;;;;;;9.59;64.87;101965.69;2106450;28;20177;-65
2022/05/07 03:27:17;;;;;;;16.83;6.07;;;;;;;8.91;64.68;101863.63;2106734;28;20672;-64
2022/05/07 03:28:18;;;;;;;13.60;6.07;;;;;;;9.43;65.25;101971.59;2106559;28;20574;-64
2022/05/07 03:29:19;;;;;;;9.87;5.50;;;;;;;9.30;65.06;101956.56;2106537;28;20172;-64
2022/05/07 03:30:19;;;;;;;12.03;5.93;;;;;;;9.44;65.55;101970.41;2105441;28;20179;-64
2022/05/07 03:31:20;;;;;;;9.13;5.07;;;;;;;9.42;65.63;101971.97;2106687;28;20174;-64
2022/05/07 03:32:20;;;;;;;13.10;5.57;;;;;;;9.37;65.85;101975.94;2106279;28;20193;-64
2022/05/07 03:33:21;;;;;;;10.90;5.00;;;;;;;9.45;65.98;101982.28;2106565;28;20683;-64
2022/05/07 03:34:22;;;;;;;13.23;5.80;;;;;;;8.93;66.02;101888.91;2106211;28;20181;-65
2022/05/07 03:35:22;;;;;;;11.90;5.43;;;;;;;9.53;65.92;101984.66;2105956;28;20200;-64
2022/05/07 03:36:23;;;;;;;10.27;5.83;;;;;;;9.59;66.11;101983.09;2106356;28;20171;-64
2022/05/07 03:37:24;;;;;;;7.93;5.00;;;;;;;9.57;65.99;101974.41;2106618;28;20177;-64
2022/05/07 03:38:24;;;;;;;12.90;5.20;;;;;;;9.66;66.29;101980.34;2106565;28;20662;-65
2022/05/07 03:39:26;;;;;;;10.50;5.90;;;;;;;9.55;66.04;101959.38;2106423;28;20557;-65
2022/05/07 03:40:27;;;;;;;10.02;5.32;;;;;;;9.75;65.98;101985.50;2105374;28;20196;-64
2022/05/07 03:41:27;;;;;;;9.13;5.27;;;;;;;9.80;66.09;101985.91;2106478;28;20178;-64
2022/05/07 03:42:33;;;;;;;7.70;5.07;;;;;;;9.82;65.60;101991.03;2106393;28;20189;-64
2022/05/07 03:43:36;;;;;;;13.77;4.93;;;;;;;9.32;65.71;101904.38;2106219;28;20180;-64
2022/05/07 03:44:37;;;;;;;11.13;5.43;;;;;;;9.89;65.61;101991.81;2105774;28;20176;-64
2022/05/07 03:45:38;;;;;;;10.00;5.17;;;;;;;9.93;65.88;101994.59;2106124;28;20220;-64
2022/05/07 03:46:38;;;;;;;11.17;5.50;;;;;;;9.95;65.97;101992.22;2106428;28;20202;-64
2022/05/07 03:47:39;;;;;;;8.60;5.13;;;;;;;9.99;65.65;101991.03;2106432;28;20200;-65
2022/05/07 03:48:40;;;;;;;8.13;4.90;;;;;;;10.01;65.89;101994.22;2106371;28;20173;-64
2022/05/07 03:49:40;;;;;;;8.77;5.10;;;;;;;10.03;65.88;101999.34;2106394;28;20650;-64
2022/05/07 03:50:41;;;;;;;7.23;5.03;;;;;;;10.06;66.15;101987.50;2105173;28;20589;-64
2022/05/07 03:54:20;;;;;;;10.17;5.23;;;;;;;10.09;66.36;101993.03;2106434;28;20399;-64
2022/05/07 03:55:21;;;;;;;8.93;5.10;;;;;;;10.12;66.34;101986.72;2105495;28;20930;-64
2022/05/07 03:56:21;;;;;;;7.67;5.40;;;;;;;9.60;66.09;101904.44;2106312;28;20218;-64
2022/05/07 03:57:22;;;;;;;9.97;5.33;;;;;;;10.21;66.28;102000.97;2106504;28;20239;-64
2022/05/07 03:58:22;;;;;;;12.10;5.23;;;;;;;9.76;65.99;101946.34;2106255;28;20185;-64
2022/05/07 03:59:23;;;;;;;8.67;5.20;;;;;;;10.17;66.39;101993.84;2106440;28;20174;-64
2022/05/07 04:00:24;;;;;;;8.97;4.80;;;;;;;10.25;66.33;102000.97;2105284;28;20271;-64
2022/05/07 04:01:24;;;;;;;12.73;5.43;;;;;;;10.28;66.04;102003.72;2105908;28;20178;-64
2022/05/07 04:02:25;;;;;;;13.90;5.60;;;;;;;10.34;65.94;102009.66;2106077;28;20176;-64
2022/05/07 04:03:27;;;;;;;12.07;5.50;;;;;;;10.38;66.01;102008.47;2106378;28;20613;-64
2022/05/07 04:04:28;;;;;;;11.13;5.03;;;;;;;10.43;65.48;101998.94;2106209;28;20175;-64
2022/05/07 04:05:28;;;;;;;10.57;5.07;;;;;;;10.45;65.65;102010.47;2105396;28;20450;-64
2022/05/07 04:06:29;;;;;;;12.20;5.07;;;;;;;10.37;65.17;102001.34;2106317;28;20254;-64
2022/05/07 04:07:30;;;;;;;12.60;5.30;;;;;;;10.48;65.07;102017.94;2106264;28;20181;-65
2022/05/07 04:08:31;;;;;;;8.63;5.20;;;;;;;10.45;64.75;102011.22;2106242;28;20185;-64
2022/05/07 04:09:31;;;;;;;10.13;4.90;;;;;;;10.00;64.42;101944.75;2106249;28;20955;-64
2022/05/07 04:10:32;;;;;;;13.40;5.20;;;;;;;10.50;64.27;102015.59;2105121;28;20228;-64
2022/05/07 04:11:33;;;;;;;8.00;5.03;;;;;;;10.28;64.00;101984.34;2106353;28;20718;-64
2022/05/07 04:12:33;;;;;;;9.27;5.13;;;;;;;10.51;64.09;102022.72;2105891;28;20603;-64
2022/05/07 04:13:34;;;;;;;9.10;4.87;;;;;;;10.50;63.98;102018.38;2106309;28;20176;-64
2022/05/07 04:14:34;;;;;;;11.73;5.37;;;;;;;10.52;64.10;102018.75;2105290;28;20252;-64
2022/05/07 04:15:36;;;;;;;11.40;5.20;;;;;;;10.55;64.10;102020.72;2103648;28;20171;-64
2022/05/07 04:16:36;;;;;;;7.78;4.80;;;;;;;10.51;63.89;102004.09;2105462;28;20197;-64
2022/05/07 04:17:37;;;;;;;9.30;5.03;;;;;;;10.53;63.70;102012.00;2097853;28;20188;-64
2022/05/07 04:18:37;;;;;;;9.57;5.03;;;;;;;10.55;63.47;102020.72;2097870;28;20654;-65
2022/05/07 04:19:38;;;;;;;10.40;5.20;;;;;;;10.33;63.60;101986.72;2097848;28;20688;-64
2022/05/07 04:20:39;;;;;;;13.50;6.47;;;;;;;10.56;63.90;102022.31;2096694;28;20180;-64
2022/05/07 04:21:40;;;;;;;12.48;5.85;;;;;;;10.41;63.80;102009.66;2098963;28;20177;-65
2022/05/07 04:22:41;;;;;;;9.40;5.10;;;;;;;10.44;63.87;102023.50;2105560;28;20661;-64
2022/05/07 04:23:41;;;;;;;7.83;4.87;;;;;;;10.41;64.06;102027.06;2106121;28;20166;-64
2022/05/07 04:24:43;;;;;;;7.23;4.50;;;;;;;10.46;64.27;102037.75;2105658;28;20171;-64
2022/05/07 04:25:44;;;;;;;7.00;5.07;;;;;;;10.49;64.31;102028.66;2105706;28;20196;-64
2022/05/07 04:26:45;;;;;;;8.02;5.35;;;;;;;10.50;64.18;102037.78;2106092;28;20180;-64
2022/05/07 04:27:45;;;;;;;8.60;4.57;;;;;;;9.75;64.16;101913.50;2106118;28;20264;-64
2022/05/07 04:28:46;;;;;;;7.10;4.67;;;;;;;10.03;64.15;101964.13;2106198;28;20197;-64
2022/05/07 04:29:46;;;;;;;5.50;4.10;;;;;;;10.59;64.49;102043.69;2105912;28;20203;-64
2022/05/07 04:30:47;;;;;;;7.70;4.70;;;;;;;10.65;63.95;102047.66;2105006;28;20174;-64
2022/05/07 04:31:47;;;;;;;7.70;4.47;;;;;;;10.67;63.89;102042.47;2105275;28;20279;-65
2022/05/07 04:32:48;;;;;;;6.83;5.00;;;;;;;10.70;63.90;102039.69;2105323;28;20235;-64
2022/05/07 04:33:49;;;;;;;6.10;4.60;;;;;;;10.74;63.76;102045.22;2106018;28;20177;-64
2022/05/07 04:34:49;;;;;;;9.23;5.30;;;;;;;10.77;64.02;102047.22;2105562;28;20185;-64
2022/05/07 04:35:50;;;;;;;9.53;4.90;;;;;;;10.64;63.84;102021.91;2104911;28;20172;-64
2022/05/07 04:36:50;;;;;;;9.13;5.20;;;;;;;10.86;64.25;102045.59;2105363;28;20222;-64
2022/05/07 04:37:51;;;;;;;6.70;5.40;;;;;;;10.90;63.94;102051.13;2105984;28;20203;-64
2022/05/07 04:38:51;;;;;;;6.83;4.93;;;;;;;10.41;64.39;101982.72;2106035;28;20177;-64
2022/05/07 04:39:52;;;;;;;6.93;4.70;;;;;;;10.93;64.39;102047.56;2106098;28;20169;-64
2022/05/07 04:40:53;;;;;;;8.97;5.27;;;;;;;10.34;64.15;101959.78;2104983;28;20562;-65
2022/05/07 04:41:54;;;;;;;11.73;5.32;;;;;;;11.01;64.42;102051.94;2106058;28;20712;-64
2022/05/07 04:42:54;;;;;;;9.23;5.17;;;;;;;10.33;64.44;101941.56;2105926;28;20604;-64
2022/05/07 04:43:55;;;;;;;11.13;5.37;;;;;;;11.09;64.64;102053.47;2105768;28;20229;-64
2022/05/07 04:44:55;;;;;;;14.60;6.17;;;;;;;11.14;64.40;102050.28;2105318;28;20267;-65
2022/05/07 04:45:56;;;;;;;10.57;5.43;;;;;;;11.20;64.30;102055.03;2105716;28;20208;-64
2022/05/07 04:46:57;;;;;;;13.13;5.80;;;;;;;11.13;64.24;102040.38;2106062;28;20251;-64
2022/05/07 04:47:58;;;;;;;11.32;4.97;;;;;;;11.26;63.84;102053.41;2106030;28;20618;-64
2022/05/07 04:48:58;;;;;;;8.13;5.00;;;;;;;10.73;63.59;101961.28;2105985;28;20257;-64
2022/05/07 04:49:59;;;;;;;11.47;5.00;;;;;;;11.33;63.78;102050.59;2105800;28;20175;-64
2022/05/07 04:51:01;;;;;;;7.23;4.87;;;;;;;11.36;63.62;102047.03;2104909;28;20286;-65
2022/05/07 04:52:05;;;;;;;9.02;4.80;;;;;;;11.42;63.95;102056.50;2105453;28;20283;-64
2022/05/07 04:53:06;;;;;;;10.53;4.70;;;;;;;11.47;63.50;102052.53;2106035;28;20565;-64